sensor_id;sensor_type;location;lat;lon;timestamp;P1;durP1;ratioP1;P2;durP2;ratioP2
55316;SDS011;41178;48.956;8.130;2023-06-14T00:03:23;7.30;;;4.32;;
55316;SDS011;41178;48.956;8.130;2023-06-14T00:08:26;5.40;;;4.17;;
55316;SDS011;41178;48.956;8.130;2023-06-14T00:13:28;3.80;;;3.20;;
55316;SDS011;41178;48.956;8.130;2023-06-14T00:18:29;6.40;;;3.90;;
55316;SDS011;41178;48.956;8.130;2023-06-14T00:23:32;5.57;;;3.80;;
55316;SDS011;41178;48.956;8.130;2023-06-14T00:28:33;8.68;;;3.83;;
55316;SDS011;41178;48.956;8.130;2023-06-14T00:33:35;5.00;;;3.70;;
55316;SDS011;41178;48.956;8.130;2023-06-14T00:38:37;5.73;;;4.10;;
55316;SDS011;41178;48.956;8.130;2023-06-14T00:43:38;9.20;;;4.10;;
55316;SDS011;41178;48.956;8.130;2023-06-14T00:48:40;7.17;;;3.97;;
55316;SDS011;41178;48.956;8.130;2023-06-14T00:53:43;6.47;;;4.40;;
55316;SDS011;41178;48.956;8.130;2023-06-14T00:58:48;5.93;;;3.77;;
55316;SDS011;41178;48.956;8.130;2023-06-14T01:03:52;4.90;;;3.90;;
55316;SDS011;41178;48.956;8.130;2023-06-14T01:09:07;6.37;;;3.80;;
55316;SDS011;41178;48.956;8.130;2023-06-14T01:14:16;6.10;;;3.90;;
55316;SDS011;41178;48.956;8.130;2023-06-14T01:19:19;7.47;;;3.77;;
55316;SDS011;41178;48.956;8.130;2023-06-14T01:24:24;5.43;;;3.90;;
55316;SDS011;41178;48.956;8.130;2023-06-14T01:29:27;5.33;;;3.90;;
55316;SDS011;41178;48.956;8.130;2023-06-14T01:34:33;6.23;;;4.20;;
55316;SDS011;41178;48.956;8.130;2023-06-14T01:39:35;5.83;;;4.20;;
55316;SDS011;41178;48.956;8.130;2023-06-14T01:44:37;5.23;;;4.33;;
55316;SDS011;41178;48.956;8.130;2023-06-14T01:49:39;7.80;;;4.60;;
55316;SDS011;41178;48.956;8.130;2023-06-14T01:54:41;5.00;;;4.50;;
55316;SDS011;41178;48.956;8.130;2023-06-14T01:59:43;4.93;;;4.30;;
55316;SDS011;41178;48.956;8.130;2023-06-14T02:04:49;5.73;;;4.57;;
55316;SDS011;41178;48.956;8.130;2023-06-14T02:09:51;5.20;;;4.33;;
55316;SDS011;41178;48.956;8.130;2023-06-14T02:14:53;5.63;;;4.27;;
55316;SDS011;41178;48.956;8.130;2023-06-14T02:19:55;5.23;;;4.47;;
55316;SDS011;41178;48.956;8.130;2023-06-14T02:24:58;6.13;;;4.50;;
55316;SDS011;41178;48.956;8.130;2023-06-14T02:30:03;5.70;;;4.37;;
55316;SDS011;41178;48.956;8.130;2023-06-14T02:35:05;8.20;;;4.10;;
55316;SDS011;41178;48.956;8.130;2023-06-14T02:40:07;6.50;;;4.37;;
55316;SDS011;41178;48.956;8.130;2023-06-14T02:45:10;6.57;;;4.20;;
55316;SDS011;41178;48.956;8.130;2023-06-14T02:50:11;5.93;;;4.77;;
55316;SDS011;41178;48.956;8.130;2023-06-14T02:55:14;7.20;;;4.13;;
55316;SDS011;41178;48.956;8.130;2023-06-14T03:00:16;4.77;;;4.00;;
55316;SDS011;41178;48.956;8.130;2023-06-14T03:05:18;5.03;;;4.20;;
55316;SDS011;41178;48.956;8.130;2023-06-14T03:10:22;8.40;;;4.20;;
55316;SDS011;41178;48.956;8.130;2023-06-14T03:15:24;8.27;;;4.87;;
55316;SDS011;41178;48.956;8.130;2023-06-14T03:20:26;5.20;;;4.10;;
55316;SDS011;41178;48.956;8.130;2023-06-14T03:25:30;4.97;;;4.43;;
55316;SDS011;41178;48.956;8.130;2023-06-14T03:30:32;7.63;;;4.23;;
55316;SDS011;41178;48.956;8.130;2023-06-14T03:35:34;5.50;;;4.33;;
55316;SDS011;41178;48.956;8.130;2023-06-14T03:40:36;6.73;;;4.53;;
55316;SDS011;41178;48.956;8.130;2023-06-14T03:45:38;6.43;;;4.50;;
55316;SDS011;41178;48.956;8.130;2023-06-14T03:50:39;5.47;;;4.27;;
55316;SDS011;41178;48.956;8.130;2023-06-14T03:55:41;5.47;;;4.40;;
55316;SDS011;41178;48.956;8.130;2023-06-14T04:00:46;4.97;;;4.50;;
55316;SDS011;41178;48.956;8.130;2023-06-14T04:05:48;4.07;;;3.63;;
55316;SDS011;41178;48.956;8.130;2023-06-14T04:10:51;6.23;;;4.50;;
55316;SDS011;41178;48.956;8.130;2023-06-14T04:15:52;5.30;;;4.47;;
55316;SDS011;41178;48.956;8.130;2023-06-14T04:20:55;8.33;;;4.40;;
55316;SDS011;41178;48.956;8.130;2023-06-14T04:25:57;5.27;;;4.07;;
55316;SDS011;41178;48.956;8.130;2023-06-14T04:31:03;6.97;;;4.17;;
55316;SDS011;41178;48.956;8.130;2023-06-14T04:36:05;5.73;;;4.33;;
55316;SDS011;41178;48.956;8.130;2023-06-14T04:41:08;5.47;;;4.20;;
55316;SDS011;41178;48.956;8.130;2023-06-14T04:46:12;5.20;;;4.37;;
55316;SDS011;41178;48.956;8.130;2023-06-14T04:51:16;4.47;;;3.73;;
55316;SDS011;41178;48.956;8.130;2023-06-14T04:56:18;6.50;;;4.40;;
55316;SDS011;41178;48.956;8.130;2023-06-14T05:01:20;4.97;;;3.90;;
55316;SDS011;41178;48.956;8.130;2023-06-14T05:06:24;6.10;;;4.57;;
55316;SDS011;41178;48.956;8.130;2023-06-14T05:11:28;5.93;;;4.47;;
55316;SDS011;41178;48.956;8.130;2023-06-14T05:16:30;6.23;;;4.47;;
55316;SDS011;41178;48.956;8.130;2023-06-14T05:21:32;5.43;;;4.43;;
55316;SDS011;41178;48.956;8.130;2023-06-14T05:26:42;5.20;;;4.17;;
55316;SDS011;41178;48.956;8.130;2023-06-14T05:31:44;6.63;;;4.10;;
55316;SDS011;41178;48.956;8.130;2023-06-14T05:36:46;5.77;;;4.53;;
55316;SDS011;41178;48.956;8.130;2023-06-14T05:41:48;7.80;;;4.57;;
55316;SDS011;41178;48.956;8.130;2023-06-14T05:46:51;5.90;;;4.23;;
55316;SDS011;41178;48.956;8.130;2023-06-14T05:51:53;6.80;;;4.67;;
55316;SDS011;41178;48.956;8.130;2023-06-14T05:56:54;6.27;;;4.77;;
55316;SDS011;41178;48.956;8.130;2023-06-14T06:01:56;9.03;;;5.03;;
55316;SDS011;41178;48.956;8.130;2023-06-14T06:06:58;6.30;;;4.70;;
55316;SDS011;41178;48.956;8.130;2023-06-14T06:11:59;6.07;;;4.30;;
55316;SDS011;41178;48.956;8.130;2023-06-14T06:17:01;9.57;;;4.27;;
55316;SDS011;41178;48.956;8.130;2023-06-14T06:22:03;5.60;;;4.70;;
55316;SDS011;41178;48.956;8.130;2023-06-14T06:27:07;6.93;;;4.40;;
55316;SDS011;41178;48.956;8.130;2023-06-14T06:32:09;6.78;;;4.63;;
55316;SDS011;41178;48.956;8.130;2023-06-14T06:37:11;5.90;;;5.30;;
55316;SDS011;41178;48.956;8.130;2023-06-14T06:42:13;7.93;;;4.60;;
55316;SDS011;41178;48.956;8.130;2023-06-14T06:47:15;6.93;;;4.30;;
55316;SDS011;41178;48.956;8.130;2023-06-14T06:52:17;9.77;;;4.50;;
55316;SDS011;41178;48.956;8.130;2023-06-14T06:57:18;7.57;;;4.70;;
55316;SDS011;41178;48.956;8.130;2023-06-14T07:02:20;7.43;;;4.43;;
55316;SDS011;41178;48.956;8.130;2023-06-14T07:07:22;7.70;;;4.65;;
55316;SDS011;41178;48.956;8.130;2023-06-14T07:12:23;9.23;;;4.50;;
55316;SDS011;41178;48.956;8.130;2023-06-14T07:17:25;4.60;;;4.00;;
55316;SDS011;41178;48.956;8.130;2023-06-14T07:22:27;8.57;;;4.57;;
55316;SDS011;41178;48.956;8.130;2023-06-14T07:27:29;9.63;;;4.55;;
55316;SDS011;41178;48.956;8.130;2023-06-14T07:32:30;6.07;;;4.18;;
55316;SDS011;41178;48.956;8.130;2023-06-14T07:37:32;8.48;;;4.50;;
55316;SDS011;41178;48.956;8.130;2023-06-14T07:42:34;5.22;;;4.30;;
55316;SDS011;41178;48.956;8.130;2023-06-14T07:47:36;4.90;;;4.40;;
55316;SDS011;41178;48.956;8.130;2023-06-14T07:52:38;5.55;;;4.07;;
55316;SDS011;41178;48.956;8.130;2023-06-14T07:57:41;6.28;;;4.10;;
55316;SDS011;41178;48.956;8.130;2023-06-14T08:02:44;7.40;;;4.60;;
55316;SDS011;41178;48.956;8.130;2023-06-14T08:07:47;6.97;;;4.10;;
55316;SDS011;41178;48.956;8.130;2023-06-14T08:12:48;5.47;;;4.07;;
55316;SDS011;41178;48.956;8.130;2023-06-14T08:17:53;5.55;;;4.10;;
55316;SDS011;41178;48.956;8.130;2023-06-14T08:22:55;8.20;;;3.92;;
55316;SDS011;41178;48.956;8.130;2023-06-14T08:27:58;6.30;;;3.75;;
55316;SDS011;41178;48.956;8.130;2023-06-14T08:33:00;10.20;;;4.20;;
55316;SDS011;41178;48.956;8.130;2023-06-14T08:38:16;6.60;;;3.88;;
55316;SDS011;41178;48.956;8.130;2023-06-14T08:43:18;5.28;;;3.80;;
55316;SDS011;41178;48.956;8.130;2023-06-14T08:48:20;6.97;;;3.90;;
55316;SDS011;41178;48.956;8.130;2023-06-14T08:53:24;10.60;;;3.80;;
55316;SDS011;41178;48.956;8.130;2023-06-14T08:58:26;5.15;;;3.60;;
55316;SDS011;41178;48.956;8.130;2023-06-14T09:03:30;5.75;;;3.40;;
55316;SDS011;41178;48.956;8.130;2023-06-14T09:08:34;4.30;;;3.17;;
55316;SDS011;41178;48.956;8.130;2023-06-14T09:13:36;5.40;;;3.85;;
55316;SDS011;41178;48.956;8.130;2023-06-14T09:18:39;7.63;;;3.90;;
55316;SDS011;41178;48.956;8.130;2023-06-14T09:23:46;7.43;;;4.55;;
55316;SDS011;41178;48.956;8.130;2023-06-14T09:28:49;7.53;;;3.63;;
55316;SDS011;41178;48.956;8.130;2023-06-14T09:33:52;7.70;;;3.90;;
55316;SDS011;41178;48.956;8.130;2023-06-14T09:38:59;4.90;;;3.22;;
55316;SDS011;41178;48.956;8.130;2023-06-14T09:44:06;6.18;;;3.70;;
55316;SDS011;41178;48.956;8.130;2023-06-14T09:49:14;5.22;;;4.05;;
55316;SDS011;41178;48.956;8.130;2023-06-14T09:54:16;5.93;;;3.97;;
55316;SDS011;41178;48.956;8.130;2023-06-14T09:59:25;4.95;;;3.20;;
55316;SDS011;41178;48.956;8.130;2023-06-14T10:04:31;3.85;;;3.38;;
55316;SDS011;41178;48.956;8.130;2023-06-14T10:09:35;6.45;;;3.63;;
55316;SDS011;41178;48.956;8.130;2023-06-14T10:14:37;9.48;;;3.60;;
55316;SDS011;41178;48.956;8.130;2023-06-14T10:19:48;5.68;;;3.50;;
55316;SDS011;41178;48.956;8.130;2023-06-14T10:24:55;4.03;;;3.10;;
55316;SDS011;41178;48.956;8.130;2023-06-14T10:35:04;4.57;;;3.20;;
55316;SDS011;41178;48.956;8.130;2023-06-14T10:40:08;7.97;;;3.90;;
55316;SDS011;41178;48.956;8.130;2023-06-14T10:45:10;7.45;;;3.28;;
55316;SDS011;41178;48.956;8.130;2023-06-14T10:50:14;5.00;;;3.47;;
55316;SDS011;41178;48.956;8.130;2023-06-14T10:55:18;4.03;;;3.40;;
55316;SDS011;41178;48.956;8.130;2023-06-14T11:06:22;7.72;;;4.00;;
55316;SDS011;41178;48.956;8.130;2023-06-14T11:11:31;3.83;;;3.10;;
55316;SDS011;41178;48.956;8.130;2023-06-14T11:16:35;5.75;;;3.60;;
55316;SDS011;41178;48.956;8.130;2023-06-14T11:21:39;5.43;;;3.63;;
55316;SDS011;41178;48.956;8.130;2023-06-14T11:26:42;4.68;;;3.60;;
55316;SDS011;41178;48.956;8.130;2023-06-14T11:31:44;4.05;;;3.25;;
55316;SDS011;41178;48.956;8.130;2023-06-14T11:36:49;6.90;;;3.72;;
55316;SDS011;41178;48.956;8.130;2023-06-14T11:41:51;6.38;;;3.80;;
55316;SDS011;41178;48.956;8.130;2023-06-14T11:46:53;6.05;;;3.72;;
55316;SDS011;41178;48.956;8.130;2023-06-14T11:51:54;5.85;;;3.60;;
55316;SDS011;41178;48.956;8.130;2023-06-14T11:56:56;5.53;;;3.60;;
55316;SDS011;41178;48.956;8.130;2023-06-14T12:01:58;7.40;;;3.65;;
55316;SDS011;41178;48.956;8.130;2023-06-14T12:07:18;7.22;;;3.95;;
55316;SDS011;41178;48.956;8.130;2023-06-14T12:12:24;6.50;;;3.97;;
55316;SDS011;41178;48.956;8.130;2023-06-14T12:17:26;5.03;;;3.30;;
55316;SDS011;41178;48.956;8.130;2023-06-14T12:22:37;5.50;;;3.25;;
55316;SDS011;41178;48.956;8.130;2023-06-14T12:27:39;3.83;;;3.20;;
55316;SDS011;41178;48.956;8.130;2023-06-14T12:32:41;4.25;;;2.80;;
55316;SDS011;41178;48.956;8.130;2023-06-14T12:37:45;3.92;;;3.10;;
55316;SDS011;41178;48.956;8.130;2023-06-14T12:42:47;5.68;;;3.00;;
55316;SDS011;41178;48.956;8.130;2023-06-14T12:47:49;5.18;;;3.15;;
55316;SDS011;41178;48.956;8.130;2023-06-14T12:52:51;5.05;;;3.05;;
55316;SDS011;41178;48.956;8.130;2023-06-14T12:57:53;5.45;;;2.92;;
55316;SDS011;41178;48.956;8.130;2023-06-14T13:02:54;5.18;;;2.80;;
55316;SDS011;41178;48.956;8.130;2023-06-14T13:07:56;4.72;;;3.10;;
55316;SDS011;41178;48.956;8.130;2023-06-14T13:12:58;3.85;;;2.88;;
55316;SDS011;41178;48.956;8.130;2023-06-14T13:18:01;3.67;;;3.00;;
55316;SDS011;41178;48.956;8.130;2023-06-14T13:23:04;5.80;;;3.05;;
55316;SDS011;41178;48.956;8.130;2023-06-14T13:28:08;6.18;;;3.00;;
55316;SDS011;41178;48.956;8.130;2023-06-14T13:33:10;4.28;;;3.10;;
55316;SDS011;41178;48.956;8.130;2023-06-14T13:38:12;5.97;;;3.10;;
55316;SDS011;41178;48.956;8.130;2023-06-14T13:43:14;3.40;;;2.67;;
55316;SDS011;41178;48.956;8.130;2023-06-14T13:48:15;4.43;;;2.97;;
55316;SDS011;41178;48.956;8.130;2023-06-14T13:53:17;5.43;;;3.10;;
55316;SDS011;41178;48.956;8.130;2023-06-14T13:58:19;5.10;;;2.72;;
55316;SDS011;41178;48.956;8.130;2023-06-14T14:03:20;5.18;;;2.88;;
55316;SDS011;41178;48.956;8.130;2023-06-14T14:08:22;6.30;;;3.15;;
55316;SDS011;41178;48.956;8.130;2023-06-14T14:13:24;6.07;;;2.85;;
55316;SDS011;41178;48.956;8.130;2023-06-14T14:18:26;6.45;;;3.42;;
55316;SDS011;41178;48.956;8.130;2023-06-14T14:23:32;5.82;;;3.28;;
55316;SDS011;41178;48.956;8.130;2023-06-14T14:28:33;6.07;;;3.00;;
55316;SDS011;41178;48.956;8.130;2023-06-14T14:33:35;3.47;;;3.00;;
55316;SDS011;41178;48.956;8.130;2023-06-14T14:38:37;5.90;;;3.47;;
55316;SDS011;41178;48.956;8.130;2023-06-14T14:43:39;3.75;;;2.95;;
55316;SDS011;41178;48.956;8.130;2023-06-14T14:48:41;5.55;;;2.65;;
55316;SDS011;41178;48.956;8.130;2023-06-14T14:53:42;3.30;;;2.92;;
55316;SDS011;41178;48.956;8.130;2023-06-14T14:58:44;4.90;;;2.72;;
55316;SDS011;41178;48.956;8.130;2023-06-14T15:03:46;4.38;;;2.83;;
55316;SDS011;41178;48.956;8.130;2023-06-14T15:08:59;6.70;;;3.45;;
55316;SDS011;41178;48.956;8.130;2023-06-14T15:14:00;4.38;;;3.30;;
55316;SDS011;41178;48.956;8.130;2023-06-14T15:19:02;4.70;;;2.92;;
55316;SDS011;41178;48.956;8.130;2023-06-14T15:24:04;4.57;;;3.15;;
55316;SDS011;41178;48.956;8.130;2023-06-14T15:29:06;3.55;;;3.20;;
55316;SDS011;41178;48.956;8.130;2023-06-14T15:34:08;5.32;;;3.00;;
55316;SDS011;41178;48.956;8.130;2023-06-14T15:39:10;6.10;;;3.17;;
55316;SDS011;41178;48.956;8.130;2023-06-14T15:44:11;4.38;;;2.80;;
55316;SDS011;41178;48.956;8.130;2023-06-14T15:49:13;3.50;;;3.08;;
55316;SDS011;41178;48.956;8.130;2023-06-14T15:54:15;4.50;;;3.00;;
55316;SDS011;41178;48.956;8.130;2023-06-14T15:59:17;5.40;;;2.97;;
55316;SDS011;41178;48.956;8.130;2023-06-14T16:04:19;4.90;;;3.42;;
55316;SDS011;41178;48.956;8.130;2023-06-14T16:09:21;2.88;;;2.60;;
55316;SDS011;41178;48.956;8.130;2023-06-14T16:14:23;4.80;;;2.80;;
55316;SDS011;41178;48.956;8.130;2023-06-14T16:19:24;5.63;;;3.00;;
55316;SDS011;41178;48.956;8.130;2023-06-14T16:24:27;4.00;;;2.97;;
55316;SDS011;41178;48.956;8.130;2023-06-14T16:29:28;5.70;;;3.28;;
55316;SDS011;41178;48.956;8.130;2023-06-14T16:34:30;4.35;;;3.22;;
55316;SDS011;41178;48.956;8.130;2023-06-14T16:39:34;3.00;;;2.70;;
55316;SDS011;41178;48.956;8.130;2023-06-14T16:44:35;4.13;;;2.63;;
55316;SDS011;41178;48.956;8.130;2023-06-14T16:49:37;4.80;;;3.05;;
55316;SDS011;41178;48.956;8.130;2023-06-14T16:54:39;7.53;;;3.00;;
55316;SDS011;41178;48.956;8.130;2023-06-14T16:59:40;4.70;;;3.20;;
55316;SDS011;41178;48.956;8.130;2023-06-14T17:04:42;5.72;;;3.13;;
55316;SDS011;41178;48.956;8.130;2023-06-14T17:09:45;4.45;;;3.13;;
55316;SDS011;41178;48.956;8.130;2023-06-14T17:14:47;5.20;;;3.05;;
55316;SDS011;41178;48.956;8.130;2023-06-14T17:19:52;10.45;;;2.92;;
55316;SDS011;41178;48.956;8.130;2023-06-14T17:24:54;6.97;;;3.28;;
55316;SDS011;41178;48.956;8.130;2023-06-14T17:29:56;4.43;;;3.17;;
55316;SDS011;41178;48.956;8.130;2023-06-14T17:34:58;3.38;;;2.92;;
55316;SDS011;41178;48.956;8.130;2023-06-14T17:39:59;6.57;;;2.95;;
55316;SDS011;41178;48.956;8.130;2023-06-14T17:45:01;7.90;;;3.50;;
55316;SDS011;41178;48.956;8.130;2023-06-14T17:50:03;3.15;;;2.92;;
55316;SDS011;41178;48.956;8.130;2023-06-14T17:55:07;5.45;;;3.33;;
55316;SDS011;41178;48.956;8.130;2023-06-14T18:00:09;7.57;;;3.13;;
55316;SDS011;41178;48.956;8.130;2023-06-14T18:05:11;3.95;;;3.30;;
55316;SDS011;41178;48.956;8.130;2023-06-14T18:10:13;3.97;;;2.90;;
55316;SDS011;41178;48.956;8.130;2023-06-14T18:15:17;3.53;;;2.90;;
55316;SDS011;41178;48.956;8.130;2023-06-14T18:20:19;5.05;;;2.95;;
55316;SDS011;41178;48.956;8.130;2023-06-14T18:25:22;3.45;;;3.15;;
55316;SDS011;41178;48.956;8.130;2023-06-14T18:30:24;5.57;;;3.25;;
55316;SDS011;41178;48.956;8.130;2023-06-14T18:35:26;6.28;;;3.13;;
55316;SDS011;41178;48.956;8.130;2023-06-14T18:40:28;4.63;;;3.10;;
55316;SDS011;41178;48.956;8.130;2023-06-14T18:45:30;4.93;;;2.70;;
55316;SDS011;41178;48.956;8.130;2023-06-14T18:50:32;4.35;;;3.08;;
55316;SDS011;41178;48.956;8.130;2023-06-14T18:55:35;4.40;;;2.75;;
55316;SDS011;41178;48.956;8.130;2023-06-14T19:00:37;4.78;;;3.10;;
55316;SDS011;41178;48.956;8.130;2023-06-14T19:05:39;3.20;;;2.90;;
55316;SDS011;41178;48.956;8.130;2023-06-14T19:10:40;6.85;;;2.97;;
55316;SDS011;41178;48.956;8.130;2023-06-14T19:15:42;4.55;;;3.10;;
55316;SDS011;41178;48.956;8.130;2023-06-14T19:20:44;3.75;;;2.97;;
55316;SDS011;41178;48.956;8.130;2023-06-14T19:25:46;3.72;;;3.10;;
55316;SDS011;41178;48.956;8.130;2023-06-14T19:30:48;4.75;;;3.28;;
55316;SDS011;41178;48.956;8.130;2023-06-14T19:35:50;4.15;;;3.00;;
55316;SDS011;41178;48.956;8.130;2023-06-14T19:40:51;4.85;;;3.13;;
55316;SDS011;41178;48.956;8.130;2023-06-14T19:45:53;4.63;;;3.15;;
55316;SDS011;41178;48.956;8.130;2023-06-14T19:50:55;5.40;;;3.05;;
55316;SDS011;41178;48.956;8.130;2023-06-14T19:55:57;4.70;;;3.13;;
55316;SDS011;41178;48.956;8.130;2023-06-14T20:00:58;5.60;;;3.38;;
55316;SDS011;41178;48.956;8.130;2023-06-14T20:06:00;6.93;;;3.15;;
55316;SDS011;41178;48.956;8.130;2023-06-14T20:11:02;5.55;;;3.83;;
55316;SDS011;41178;48.956;8.130;2023-06-14T20:16:04;4.97;;;3.50;;
55316;SDS011;41178;48.956;8.130;2023-06-14T20:21:06;4.70;;;3.55;;
55316;SDS011;41178;48.956;8.130;2023-06-14T20:26:08;3.95;;;3.55;;
55316;SDS011;41178;48.956;8.130;2023-06-14T20:31:10;5.55;;;2.88;;
55316;SDS011;41178;48.956;8.130;2023-06-14T20:36:14;7.72;;;3.65;;
55316;SDS011;41178;48.956;8.130;2023-06-14T20:41:16;3.38;;;3.03;;
55316;SDS011;41178;48.956;8.130;2023-06-14T20:46:18;4.00;;;3.25;;
55316;SDS011;41178;48.956;8.130;2023-06-14T20:51:21;6.53;;;3.95;;
55316;SDS011;41178;48.956;8.130;2023-06-14T20:56:23;4.18;;;3.50;;
55316;SDS011;41178;48.956;8.130;2023-06-14T21:01:25;4.15;;;3.65;;
55316;SDS011;41178;48.956;8.130;2023-06-14T21:06:34;6.47;;;3.50;;
55316;SDS011;41178;48.956;8.130;2023-06-14T21:11:40;3.70;;;3.03;;
55316;SDS011;41178;48.956;8.130;2023-06-14T21:16:41;4.57;;;3.92;;
55316;SDS011;41178;48.956;8.130;2023-06-14T21:21:43;6.72;;;3.95;;
55316;SDS011;41178;48.956;8.130;2023-06-14T21:26:45;4.45;;;3.55;;
55316;SDS011;41178;48.956;8.130;2023-06-14T21:31:46;6.63;;;3.72;;
55316;SDS011;41178;48.956;8.130;2023-06-14T21:36:49;3.80;;;3.38;;
55316;SDS011;41178;48.956;8.130;2023-06-14T21:41:53;5.57;;;3.60;;
55316;SDS011;41178;48.956;8.130;2023-06-14T21:46:55;5.90;;;4.10;;
55316;SDS011;41178;48.956;8.130;2023-06-14T21:51:57;3.65;;;3.33;;
55316;SDS011;41178;48.956;8.130;2023-06-14T21:56:59;6.13;;;3.60;;
55316;SDS011;41178;48.956;8.130;2023-06-14T22:02:01;4.80;;;3.60;;
55316;SDS011;41178;48.956;8.130;2023-06-14T22:07:03;4.75;;;3.50;;
55316;SDS011;41178;48.956;8.130;2023-06-14T22:12:05;4.57;;;3.60;;
55316;SDS011;41178;48.956;8.130;2023-06-14T22:17:07;5.53;;;3.90;;
55316;SDS011;41178;48.956;8.130;2023-06-14T22:22:10;4.73;;;3.57;;
55316;SDS011;41178;48.956;8.130;2023-06-14T22:27:12;5.67;;;3.30;;
55316;SDS011;41178;48.956;8.130;2023-06-14T22:32:15;7.03;;;4.07;;
55316;SDS011;41178;48.956;8.130;2023-06-14T22:37:17;4.45;;;3.63;;
55316;SDS011;41178;48.956;8.130;2023-06-14T22:42:19;5.37;;;3.23;;
55316;SDS011;41178;48.956;8.130;2023-06-14T22:47:21;6.37;;;3.73;;
55316;SDS011;41178;48.956;8.130;2023-06-14T22:52:23;4.67;;;3.00;;
55316;SDS011;41178;48.956;8.130;2023-06-14T22:57:27;5.73;;;3.00;;
55316;SDS011;41178;48.956;8.130;2023-06-14T23:02:31;4.23;;;2.90;;
55316;SDS011;41178;48.956;8.130;2023-06-14T23:07:32;4.33;;;3.13;;
55316;SDS011;41178;48.956;8.130;2023-06-14T23:12:35;3.73;;;3.33;;
55316;SDS011;41178;48.956;8.130;2023-06-14T23:17:37;6.70;;;3.23;;
55316;SDS011;41178;48.956;8.130;2023-06-14T23:22:41;5.70;;;3.33;;
55316;SDS011;41178;48.956;8.130;2023-06-14T23:27:44;5.63;;;3.37;;
55316;SDS011;41178;48.956;8.130;2023-06-14T23:32:47;5.30;;;3.30;;
55316;SDS011;41178;48.956;8.130;2023-06-14T23:37:50;5.90;;;3.07;;
55316;SDS011;41178;48.956;8.130;2023-06-14T23:42:51;8.47;;;3.17;;
55316;SDS011;41178;48.956;8.130;2023-06-14T23:47:53;3.80;;;2.67;;
55316;SDS011;41178;48.956;8.130;2023-06-14T23:52:55;8.23;;;3.17;;
55316;SDS011;41178;48.956;8.130;2023-06-14T23:58:00;4.83;;;3.00;;
